Time;durP1;ratioP1;P1;durP2;ratioP2;P2;SDS_P1;SDS_P2;PMS_P1;PMS_P2;Temp;Humidity;BMP_temperature;BMP_pressure;BME280_temperature;BME280_humidity;BME280_pressure;Samples;Min_cycle;Max_cycle;Signal;HPM_P1;HPM_P2
2021/04/16 00:00:22;;;;;;;4.20;3.90;;;;;;;4.27;64.57;97068.97;5034372;28;20363;-59
2021/04/16 00:02:48;;;;;;;4.10;3.70;;;;;;;4.40;62.87;97062.28;5052587;28;20710;-61
2021/04/16 00:05:13;;;;;;;4.23;3.90;;;;;;;4.36;64.09;97058.38;5052378;28;20447;-62
2021/04/16 00:07:39;;;;;;;4.10;3.70;;;;;;;4.45;63.16;97053.94;5034331;28;20211;-59
2021/04/16 00:10:13;;;;;;;4.20;3.80;;;;;;;4.46;63.13;97053.78;5052653;28;20238;-59
2021/04/16 00:12:40;;;;;;;4.93;3.43;;;;;;;4.43;62.95;97061.09;5051906;28;20503;-59
2021/04/16 00:15:15;;;;;;;4.60;4.20;;;;;;;4.60;62.14;97049.66;5052225;28;20905;-61
2021/04/16 00:17:41;;;;;;;5.13;4.03;;;;;;;4.47;62.87;97044.19;5052041;28;20465;-59
2021/04/16 00:20:09;;;;;;;4.53;3.47;;;;;;;4.44;62.43;97045.31;5052028;28;20551;-59
2021/04/16 00:22:35;;;;;;;4.03;3.60;;;;;;;4.50;62.66;97043.84;5051719;28;20191;-61
2021/04/16 00:25:01;;;;;;;4.77;4.27;;;;;;;4.33;62.58;97042.31;5052510;28;20430;-61
2021/04/16 00:27:27;;;;;;;5.37;4.10;;;;;;;4.09;63.60;97044.00;5051744;28;20179;-61
2021/04/16 00:29:52;;;;;;;6.00;4.27;;;;;;;4.15;63.60;97038.16;5052294;28;20513;-61
2021/04/16 00:32:17;;;;;;;7.07;5.63;;;;;;;4.15;63.05;97035.53;5052325;28;20272;-59
2021/04/16 00:34:43;;;;;;;7.80;5.23;;;;;;;4.20;63.42;97035.06;5055729;28;20172;-61
2021/04/16 00:37:08;;;;;;;4.97;4.43;;;;;;;4.04;63.81;97032.53;5056041;28;20174;-62
2021/04/16 00:39:34;;;;;;;4.40;4.00;;;;;;;4.11;63.42;97026.47;5056215;28;20240;-61
2021/04/16 00:41:59;;;;;;;5.37;4.17;;;;;;;4.00;64.33;97026.81;5056251;28;20219;-61
2021/04/16 00:44:25;;;;;;;4.10;3.70;;;;;;;3.82;64.48;97022.84;5034791;28;20240;-61
2021/04/16 00:46:50;;;;;;;4.90;3.80;;;;;;;3.88;65.03;97016.97;5053159;28;20180;-63
2021/04/16 00:49:21;;;;;;;4.30;3.90;;;;;;;3.84;65.67;97023.50;5037843;28;20255;-61
2021/04/16 00:51:55;;;;;;;4.70;4.30;;;;;;;3.92;65.48;97015.66;5056133;28;20535;-59
2021/04/16 00:54:24;;;;;;;4.10;3.70;;;;;;;4.06;64.96;97018.38;5056105;28;20425;-59
2021/04/16 00:56:52;;;;;;;4.27;3.87;;;;;;;4.07;65.05;97017.41;5055707;28;20419;-64
2021/04/16 00:59:21;;;;;;;5.03;4.10;;;;;;;4.16;64.37;97018.16;5054963;28;20966;-58
2021/04/16 01:01:46;;;;;;;5.17;4.70;;;;;;;4.25;64.26;97016.34;5056207;28;20884;-61
2021/04/16 01:04:12;;;;;;;4.60;4.07;;;;;;;4.29;64.38;97009.81;5055815;28;20508;-61
2021/04/16 01:06:38;;;;;;;4.40;4.00;;;;;;;4.24;64.69;97010.31;5055602;28;20673;-59
2021/04/16 01:09:05;;;;;;;3.37;3.17;;;;;;;4.26;62.87;97010.94;5055392;28;20461;-61
2021/04/16 01:11:30;;;;;;;3.40;3.10;;;;;;;4.22;63.47;97013.09;5056162;28;20175;-59
2021/04/16 01:13:56;;;;;;;4.63;3.40;;;;;;;4.26;63.51;97010.16;5055210;28;20935;-59
2021/04/16 01:16:28;;;;;;;3.40;3.10;;;;;;;4.18;64.01;97006.59;5054749;28;20182;-59
2021/04/16 01:18:55;;;;;;;4.00;3.60;;;;;;;4.19;64.32;97010.03;5055438;28;20445;-60
2021/04/16 01:21:24;;;;;;;4.40;3.40;;;;;;;4.25;64.23;97011.13;5055113;28;20465;-61
2021/04/16 01:23:58;;;;;;;3.60;3.30;;;;;;;4.28;63.58;97010.78;5055946;28;20420;-59
2021/04/16 01:26:31;;;;;;;3.23;2.97;;;;;;;4.22;63.61;97005.28;5055654;28;20750;-61
2021/04/16 01:28:56;;;;;;;3.53;3.23;;;;;;;4.19;63.91;97002.22;5054758;28;20530;-60
2021/04/16 01:31:24;;;;;;;3.50;3.20;;;;;;;4.25;64.49;97003.34;5055551;28;20498;-61
2021/04/16 01:33:50;;;;;;;3.93;3.30;;;;;;;4.18;64.07;97008.41;5055447;28;20172;-61
2021/04/16 01:36:21;;;;;;;4.47;3.50;;;;;;;4.20;63.37;97003.84;5056054;28;20404;-61
2021/04/16 01:38:47;;;;;;;4.07;3.40;;;;;;;4.16;64.07;96999.97;5055235;28;20238;-61
2021/04/16 01:41:15;;;;;;;4.13;3.57;;;;;;;4.07;63.79;97001.81;5055404;28;20459;-61
2021/04/16 01:43:44;;;;;;;4.50;3.27;;;;;;;4.13;63.59;97003.72;5054531;28;20423;-59
2021/04/16 01:46:13;;;;;;;3.70;3.23;;;;;;;4.14;63.91;96997.53;5054134;28;20404;-59
2021/04/16 01:48:50;;;;;;;3.57;3.27;;;;;;;4.08;64.34;96995.59;5054602;28;20925;-59
2021/04/16 01:51:24;;;;;;;4.27;3.17;;;;;;;3.85;64.99;96999.94;5054917;28;20417;-60
2021/04/16 01:54:07;;;;;;;3.30;3.00;;;;;;;4.04;64.86;96990.94;5054967;28;20461;-59
2021/04/16 01:56:33;;;;;;;4.17;3.77;;;;;;;4.10;64.13;96991.06;5055116;28;20451;-59
2021/04/16 01:58:58;;;;;;;3.90;3.57;;;;;;;4.11;64.64;96987.47;5054185;28;20444;-59
2021/04/16 02:01:24;;;;;;;4.50;4.20;;;;;;;4.09;64.15;96989.41;5055407;28;20482;-59
2021/04/16 02:03:49;;;;;;;3.70;3.40;;;;;;;4.18;64.06;96975.41;5055234;28;20164;-59
2021/04/16 02:06:15;;;;;;;3.80;3.50;;;;;;;4.09;64.42;96983.44;5054946;28;20198;-60
2021/04/16 02:08:40;;;;;;;3.80;3.50;;;;;;;4.03;64.84;96981.50;5054398;28;20196;-61
2021/04/16 02:11:05;;;;;;;3.33;3.13;;;;;;;3.93;64.65;96979.09;5054253;28;20179;-61
2021/04/16 02:13:31;;;;;;;3.30;3.00;;;;;;;4.09;63.64;96980.84;5054203;28;20262;-60
2021/04/16 02:15:56;;;;;;;4.37;3.97;;;;;;;4.22;63.17;96979.28;5054428;28;20538;-61
2021/04/16 02:18:22;;;;;;;4.03;3.53;;;;;;;4.14;63.39;96976.75;5054346;28;20193;-61
2021/04/16 02:20:47;;;;;;;3.50;3.30;;;;;;;4.10;64.23;96967.66;5054519;28;20300;-61
2021/04/16 02:23:12;;;;;;;3.27;3.00;;;;;;;4.09;62.81;96973.81;5054561;28;20172;-61
2021/04/16 02:25:38;;;;;;;5.10;3.80;;;;;;;3.93;65.12;96971.31;5036548;28;20579;-59
2021/04/16 02:28:04;;;;;;;3.50;3.20;;;;;;;3.87;64.95;96974.59;5053578;28;20181;-58
2021/04/16 02:30:33;;;;;;;3.63;3.33;;;;;;;3.89;64.99;96975.25;5032518;28;20251;-61
2021/04/16 02:32:58;;;;;;;4.30;3.70;;;;;;;3.95;63.36;96973.75;5050305;28;20674;-61
2021/04/16 02:35:25;;;;;;;3.80;3.40;;;;;;;3.88;63.98;96968.41;5054188;28;20400;-61
2021/04/16 02:37:50;;;;;;;4.60;3.57;;;;;;;3.86;64.18;96972.16;5054010;28;20190;-59
2021/04/16 02:40:19;;;;;;;4.80;3.60;;;;;;;3.89;64.33;96979.63;5054491;28;21053;-60
2021/04/16 02:42:45;;;;;;;3.60;3.30;;;;;;;3.87;64.65;96976.38;5053800;28;20769;-61
2021/04/16 02:45:14;;;;;;;3.47;3.23;;;;;;;3.74;65.30;96971.72;5053389;28;20440;-60
2021/04/16 02:47:39;;;;;;;4.17;3.40;;;;;;;3.83;64.76;96967.28;5053699;28;20692;-61
2021/04/16 02:50:07;;;;;;;3.73;3.40;;;;;;;3.95;64.19;96971.16;5054039;28;20444;-58
2021/04/16 02:52:32;;;;;;;3.80;3.50;;;;;;;3.90;64.90;96966.44;5053643;28;20190;-60
2021/04/16 02:54:58;;;;;;;3.70;3.40;;;;;;;3.89;64.77;96970.03;5054086;28;20405;-59
2021/04/16 02:57:24;;;;;;;4.50;4.20;;;;;;;3.84;65.90;96966.31;5053448;28;20312;-59
2021/04/16 02:59:50;;;;;;;3.50;3.20;;;;;;;3.94;65.03;96970.34;5053669;28;20271;-59
2021/04/16 03:02:16;;;;;;;3.53;3.30;;;;;;;3.95;64.78;96961.53;5053789;28;20439;-61
2021/04/16 03:04:41;;;;;;;3.47;3.27;;;;;;;3.96;64.47;96963.19;5052858;28;20185;-59
2021/04/16 03:07:06;;;;;;;6.70;3.57;;;;;;;3.97;64.57;96961.38;5053455;28;20179;-61
2021/04/16 03:09:32;;;;;;;5.13;3.40;;;;;;;3.91;64.58;96962.06;5054022;28;20207;-61
2021/04/16 03:11:57;;;;;;;5.00;3.90;;;;;;;3.85;64.23;96960.97;5053659;28;20156;-60
2021/04/16 03:14:23;;;;;;;4.10;3.80;;;;;;;3.74;64.91;96958.72;5053132;28;20182;-58
2021/04/16 03:16:49;;;;;;;4.10;3.70;;;;;;;3.80;64.96;96947.66;5053251;28;20253;-59
2021/04/16 03:19:14;;;;;;;3.80;3.33;;;;;;;3.84;64.63;96959.31;5053064;28;20246;-58
2021/04/16 03:21:41;;;;;;;4.30;3.90;;;;;;;3.70;65.30;96959.22;5053906;28;20479;-60
2021/04/16 03:24:07;;;;;;;3.97;3.67;;;;;;;3.68;65.72;96954.19;5054352;28;20188;-60
2021/04/16 03:26:33;;;;;;;4.50;3.80;;;;;;;3.56;65.68;96950.34;5053809;28;20419;-59
2021/04/16 03:29:00;;;;;;;4.13;3.83;;;;;;;3.60;65.43;96950.81;5052729;28;20437;-61
2021/04/16 03:31:27;;;;;;;4.80;4.40;;;;;;;3.59;66.04;96951.78;5053640;28;20196;-58
2021/04/16 03:33:54;;;;;;;3.77;3.40;;;;;;;3.72;65.26;96950.28;5052210;28;20418;-61
2021/04/16 03:36:20;;;;;;;5.03;4.40;;;;;;;3.74;64.95;96944.91;5053558;28;20428;-59
2021/04/16 03:38:47;;;;;;;4.00;3.70;;;;;;;3.74;64.61;96948.34;5052727;28;20801;-60
2021/04/16 03:41:12;;;;;;;4.40;4.00;;;;;;;3.61;65.84;96952.44;5053310;28;20602;-59
2021/04/16 03:43:38;;;;;;;5.87;3.57;;;;;;;3.47;66.67;96951.34;5053368;28;21033;-61
2021/04/16 03:46:03;;;;;;;4.80;3.60;;;;;;;3.35;67.33;96951.88;5035454;28;20173;-59
2021/04/16 03:48:29;;;;;;;4.77;4.30;;;;;;;3.22;67.17;96952.38;5034495;28;20198;-60
2021/04/16 03:50:55;;;;;;;4.20;3.80;;;;;;;3.29;67.41;96952.53;5053368;28;20617;-59
2021/04/16 03:53:21;;;;;;;4.13;3.83;;;;;;;3.42;66.59;96943.25;5053198;28;20192;-59
2021/04/16 03:55:46;;;;;;;3.77;3.47;;;;;;;3.41;66.80;96949.41;5053218;28;20173;-59
2021/04/16 03:58:12;;;;;;;4.33;4.00;;;;;;;3.27;66.47;96951.88;5053060;28;20405;-59
2021/04/16 04:00:39;;;;;;;5.90;3.50;;;;;;;3.34;66.74;96953.66;5053185;28;20289;-59
2021/04/16 04:03:07;;;;;;;5.57;4.37;;;;;;;3.40;67.22;96952.19;5052473;28;20423;-60
2021/04/16 04:05:33;;;;;;;4.87;4.20;;;;;;;3.23;66.64;96953.16;5053286;28;20399;-59
2021/04/16 04:07:58;;;;;;;4.03;3.73;;;;;;;3.29;66.26;96958.53;5053572;28;20408;-59
2021/04/16 04:10:24;;;;;;;4.80;4.27;;;;;;;3.15;66.45;96954.81;5059672;28;21005;-60
2021/04/16 04:12:50;;;;;;;4.00;3.70;;;;;;;3.04;67.39;96956.97;5059694;28;20248;-59
2021/04/16 04:15:17;;;;;;;4.57;4.10;;;;;;;3.02;67.43;96954.53;5059749;28;20439;-58
2021/04/16 04:17:43;;;;;;;5.37;4.73;;;;;;;3.11;68.35;96957.91;5059133;28;20423;-59
2021/04/16 04:20:19;;;;;;;5.17;3.93;;;;;;;3.18;67.69;96956.28;5059020;28;20445;-61
2021/04/16 04:22:44;;;;;;;4.40;4.00;;;;;;;3.06;67.12;96950.59;5058939;28;20215;-59
2021/04/16 04:25:12;;;;;;;6.50;4.07;;;;;;;3.23;66.75;96958.38;5059410;28;20415;-60
2021/04/16 04:27:37;;;;;;;5.83;3.93;;;;;;;3.33;66.34;96949.44;5058166;28;20207;-60
2021/04/16 04:30:05;;;;;;;4.50;4.10;;;;;;;3.34;66.23;96955.44;5041655;28;20462;-58
2021/04/16 04:32:30;;;;;;;4.07;3.77;;;;;;;3.30;66.67;96954.94;5041618;28;20689;-59
2021/04/16 04:34:55;;;;;;;3.90;3.50;;;;;;;3.26;66.27;96958.88;5059651;28;20438;-60
2021/04/16 04:37:22;;;;;;;4.27;3.87;;;;;;;3.25;66.84;96954.63;5059328;28;20169;-58
2021/04/16 04:39:47;;;;;;;3.90;3.00;;;;;;;3.09;66.73;96962.47;5059096;28;20675;-60
2021/04/16 04:42:13;;;;;;;4.17;3.37;;;;;;;2.87;67.89;96956.16;5058690;28;20464;-59
2021/04/16 04:44:39;;;;;;;4.00;3.60;;;;;;;2.51;70.30;96964.41;5059219;28;20692;-59
2021/04/16 04:47:04;;;;;;;4.10;3.70;;;;;;;2.62;69.61;96961.50;5058967;28;20840;-60
2021/04/16 04:49:30;;;;;;;4.40;3.80;;;;;;;2.75;69.48;96969.63;5059181;28;20586;-59
2021/04/16 04:52:18;;;;;;;6.60;4.03;;;;;;;2.85;69.34;96965.88;5059615;28;20156;-60
2021/04/16 04:54:49;;;;;;;4.23;3.93;;;;;;;2.81;69.00;96980.16;5037989;28;20187;-58
2021/04/16 04:57:16;;;;;;;4.90;4.50;;;;;;;2.65;70.83;96971.53;5047617;28;20419;-59
2021/04/16 04:59:42;;;;;;;4.00;3.60;;;;;;;2.50;71.13;96967.97;5059394;28;20423;-59
2021/04/16 05:02:08;;;;;;;4.60;4.20;;;;;;;2.48;70.91;96973.31;5058772;28;20957;-59
2021/04/16 05:04:33;;;;;;;5.17;4.70;;;;;;;2.72;71.09;96980.28;5059277;28;20487;-60
2021/04/16 05:06:59;;;;;;;5.43;3.70;;;;;;;2.72;71.24;96977.69;5059052;28;20168;-60
2021/04/16 05:09:24;;;;;;;4.27;3.87;;;;;;;2.70;71.39;96979.66;5059295;28;20281;-59
2021/04/16 05:11:50;;;;;;;4.63;4.27;;;;;;;2.89;70.73;96981.94;5058928;28;20250;-59
2021/04/16 05:14:16;;;;;;;4.53;4.13;;;;;;;2.97;70.08;96974.94;5058820;28;20172;-60
2021/04/16 05:16:41;;;;;;;4.63;4.20;;;;;;;2.95;70.64;96969.09;5059828;28;20201;-60
2021/04/16 05:19:06;;;;;;;5.07;4.57;;;;;;;2.84;71.13;96979.84;5057826;28;20197;-60
2021/04/16 05:21:34;;;;;;;3.97;3.73;;;;;;;2.77;72.17;96976.25;5055953;28;20200;-60
2021/04/16 05:23:59;;;;;;;4.63;4.23;;;;;;;3.09;70.76;96973.66;5055792;28;20163;-59
2021/04/16 05:26:25;;;;;;;4.03;3.73;;;;;;;3.10;70.79;96975.25;5037531;28;20468;-60
2021/04/16 05:28:50;;;;;;;4.53;4.20;;;;;;;3.02;71.19;96966.69;5054645;28;20199;-61
2021/04/16 05:31:15;;;;;;;4.93;4.43;;;;;;;3.04;71.35;96975.91;5055831;28;20178;-59
2021/04/16 05:33:41;;;;;;;5.37;3.90;;;;;;;3.10;71.12;96977.88;5055743;28;20173;-59
2021/04/16 05:36:07;;;;;;;4.23;3.90;;;;;;;3.26;70.76;96979.66;5056036;28;20175;-59
2021/04/16 05:38:32;;;;;;;4.60;4.20;;;;;;;3.35;70.29;96976.06;5055306;28;20205;-59
2021/04/16 05:40:57;;;;;;;4.90;4.50;;;;;;;3.45;70.20;96978.44;5055284;28;20720;-60
2021/04/16 05:43:23;;;;;;;4.43;4.03;;;;;;;3.40;70.28;96978.97;5037191;28;20636;-60
2021/04/16 05:45:48;;;;;;;5.10;4.70;;;;;;;3.26;71.00;96978.81;5054967;28;20169;-59
2021/04/16 05:48:13;;;;;;;5.70;4.90;;;;;;;3.36;70.87;96985.44;5054589;28;20630;-58
2021/04/16 05:50:39;;;;;;;4.43;4.03;;;;;;;3.13;71.85;96984.53;5055543;28;20168;-59
2021/04/16 05:53:05;;;;;;;5.13;4.63;;;;;;;3.19;72.08;96983.84;5055462;28;20179;-60
2021/04/16 05:55:30;;;;;;;5.20;4.70;;;;;;;3.19;72.37;96981.25;5055536;28;20182;-59
2021/04/16 05:57:56;;;;;;;4.90;4.50;;;;;;;3.31;71.23;96985.16;5054268;28;20525;-61
2021/04/16 06:00:22;;;;;;;4.50;4.10;;;;;;;3.56;71.16;96984.13;5054723;28;20255;-60
2021/04/16 06:02:47;;;;;;;5.20;4.67;;;;;;;3.72;70.29;96984.06;5054766;28;20427;-59
2021/04/16 06:05:16;;;;;;;5.50;5.00;;;;;;;3.77;70.41;96986.97;5055147;28;20180;-60
2021/04/16 06:07:42;;;;;;;5.80;5.20;;;;;;;3.60;70.78;96989.78;5054814;28;20700;-59
2021/04/16 06:10:10;;;;;;;4.50;4.10;;;;;;;3.72;70.93;96991.03;5055204;28;20517;-60
2021/04/16 06:12:37;;;;;;;5.20;4.80;;;;;;;4.04;70.60;96996.91;5054393;28;20183;-61
2021/04/16 06:15:10;;;;;;;6.33;4.90;;;;;;;4.28;70.06;96995.19;5054945;28;20431;-59
2021/04/16 06:17:36;;;;;;;6.40;5.80;;;;;;;4.39;70.00;96990.41;5054607;28;20423;-61
2021/04/16 06:20:02;;;;;;;5.60;5.17;;;;;;;4.51;69.69;96991.63;5054766;28;20851;-61
2021/04/16 06:22:28;;;;;;;5.07;4.63;;;;;;;4.72;68.91;96991.84;5054849;28;20587;-61
2021/04/16 06:24:53;;;;;;;5.80;5.30;;;;;;;4.91;69.13;96986.16;5054939;28;20493;-59
2021/04/16 06:27:19;;;;;;;7.43;5.93;;;;;;;5.08;67.37;96989.44;5035679;28;20789;-60
2021/04/16 06:29:45;;;;;;;5.40;4.90;;;;;;;5.12;67.76;96983.72;5054179;28;20282;-61
2021/04/16 06:32:12;;;;;;;10.27;5.40;;;;;;;5.22;66.65;96981.66;5053795;28;20496;-61
2021/04/16 06:34:37;;;;;;;5.27;4.80;;;;;;;5.44;66.99;96986.97;5054355;28;20190;-61
2021/04/16 06:37:03;;;;;;;6.10;5.50;;;;;;;5.19;67.25;96978.59;5053726;28;20436;-60
2021/04/16 06:39:28;;;;;;;5.80;5.40;;;;;;;5.43;66.43;96980.16;5054316;28;20556;-59
2021/04/16 06:41:54;;;;;;;5.43;5.03;;;;;;;5.69;65.41;96985.75;5053812;28;20669;-60
2021/04/16 06:44:19;;;;;;;5.77;5.30;;;;;;;5.70;64.81;96972.53;5053753;28;20631;-59
2021/04/16 06:46:48;;;;;;;5.50;5.00;;;;;;;5.61;65.76;96975.41;5053915;28;20572;-58
2021/04/16 06:49:24;;;;;;;5.27;4.80;;;;;;;5.72;65.11;96977.56;5035975;28;20237;-59
2021/04/16 06:52:00;;;;;;;5.43;4.93;;;;;;;5.82;64.71;96978.91;5054369;28;20766;-61
2021/04/16 06:54:31;;;;;;;8.27;5.27;;;;;;;5.87;65.57;96973.19;5053369;28;20432;-61
2021/04/16 06:56:59;;;;;;;5.30;4.80;;;;;;;5.90;64.70;96975.44;5034390;28;20949;-59
2021/04/16 06:59:31;;;;;;;5.33;4.83;;;;;;;5.93;65.30;96983.69;5034131;28;20502;-61
2021/04/16 07:02:11;;;;;;;5.50;5.10;;;;;;;5.93;66.24;96975.88;5034145;28;20453;-59
2021/04/16 07:04:36;;;;;;;6.30;5.70;;;;;;;5.94;66.42;96984.53;5053754;28;20436;-59
2021/04/16 07:07:13;;;;;;;6.33;5.73;;;;;;;5.82;67.38;96978.09;5053200;28;20426;-61
2021/04/16 07:09:42;;;;;;;5.73;5.23;;;;;;;6.05;66.04;96979.63;5053255;28;20199;-61
2021/04/16 07:12:20;;;;;;;6.13;5.53;;;;;;;5.62;68.39;96990.84;5053596;28;20413;-62
2021/04/16 07:14:52;;;;;;;6.40;5.53;;;;;;;5.99;66.61;96980.38;5052787;28;20425;-60
2021/04/16 07:17:21;;;;;;;6.20;5.60;;;;;;;6.34;65.86;96983.97;5051578;28;20456;-59
2021/04/16 07:19:47;;;;;;;6.93;6.30;;;;;;;6.37;65.39;96982.81;5053240;28;20448;-59
2021/04/16 07:22:24;;;;;;;6.60;6.00;;;;;;;6.42;65.82;96985.69;5053448;28;20465;-59
2021/04/16 07:24:52;;;;;;;7.30;6.60;;;;;;;6.54;64.82;96987.63;5045509;28;20928;-60
2021/04/16 07:27:22;;;;;;;6.70;6.10;;;;;;;6.68;64.46;96983.38;5049820;28;20425;-61
2021/04/16 07:29:54;;;;;;;7.30;6.60;;;;;;;6.75;65.16;96985.03;5049586;28;20437;-60
2021/04/16 07:32:26;;;;;;;6.87;6.27;;;;;;;6.66;66.27;96985.34;5049419;28;20782;-60
2021/04/16 07:34:54;;;;;;;6.13;5.63;;;;;;;6.53;67.18;96987.81;5049613;28;20431;-60
2021/04/16 07:37:26;;;;;;;5.57;5.17;;;;;;;6.16;68.19;96994.00;5049468;28;20430;-61
2021/04/16 07:40:07;;;;;;;5.50;5.10;;;;;;;6.45;66.32;96986.13;5048817;28;20473;-61
2021/04/16 07:42:45;;;;;;;5.80;5.40;;;;;;;6.54;68.22;96989.44;5048918;28;20941;-60
2021/04/16 07:45:33;;;;;;;5.70;5.20;;;;;;;6.73;67.70;96991.44;5049420;28;20410;-62
2021/04/16 07:48:18;;;;;;;6.17;5.57;;;;;;;6.81;66.78;96983.50;5047411;28;20460;-59
2021/04/16 07:50:54;;;;;;;5.00;4.60;;;;;;;7.05;64.68;96981.28;5049195;28;20417;-61
2021/04/16 07:53:34;;;;;;;6.47;5.97;;;;;;;7.24;64.09;96983.28;5029825;28;20415;-61
2021/04/16 07:56:16;;;;;;;6.37;5.73;;;;;;;7.10;63.31;96984.16;5029827;28;20439;-60
2021/04/16 07:58:43;;;;;;;5.37;4.87;;;;;;;7.36;64.05;96985.34;5045722;28;20441;-61
2021/04/16 08:01:20;;;;;;;6.10;5.60;;;;;;;7.65;62.29;96983.34;5048630;28;20502;-61
2021/04/16 08:03:52;;;;;;;6.43;5.13;;;;;;;7.75;62.01;96988.25;5049677;28;20434;-61
2021/04/16 08:06:39;;;;;;;5.73;5.30;;;;;;;7.68;62.57;96982.16;5049109;28;20436;-62
2021/04/16 08:09:24;;;;;;;6.27;5.77;;;;;;;7.91;60.46;96991.38;5048779;28;20444;-63
2021/04/16 08:11:51;;;;;;;5.90;5.40;;;;;;;7.97;59.87;96997.63;5047415;28;20449;-63
2021/04/16 08:14:26;;;;;;;6.40;5.80;;;;;;;8.09;60.37;96990.84;5053013;28;20430;-60
2021/04/16 08:16:58;;;;;;;5.93;5.50;;;;;;;7.80;61.07;96999.75;5052673;28;20418;-61
2021/04/16 08:19:27;;;;;;;6.17;5.60;;;;;;;7.48;63.13;97005.56;5052725;28;20446;-60
2021/04/16 08:22:03;;;;;;;6.10;5.60;;;;;;;7.85;61.51;96993.94;5052963;28;20449;-62
2021/04/16 08:24:45;;;;;;;6.00;5.60;;;;;;;7.83;61.85;96999.34;5052942;28;20881;-58
2021/04/16 08:27:11;;;;;;;6.07;5.30;;;;;;;8.03;60.35;97008.13;5052083;28;20900;-58
2021/04/16 08:29:43;;;;;;;5.10;4.73;;;;;;;7.70;62.32;97004.50;5052907;28;20510;-58
2021/04/16 08:32:25;;;;;;;6.40;5.90;;;;;;;7.50;63.34;97008.78;5053057;28;20249;-58
2021/04/16 08:35:00;;;;;;;5.40;5.00;;;;;;;7.74;62.95;97004.91;5053066;28;20896;-58
2021/04/16 08:37:32;;;;;;;6.00;5.60;;;;;;;7.74;61.28;97002.31;5052634;28;20907;-60
2021/04/16 08:39:59;;;;;;;6.50;5.93;;;;;;;8.01;60.34;97006.69;5052871;28;20440;-58
2021/04/16 08:42:28;;;;;;;5.73;5.33;;;;;;;8.19;61.46;97012.22;5052534;28;20434;-57
2021/04/16 08:45:17;;;;;;;6.33;5.83;;;;;;;7.94;62.23;97003.22;5052870;28;20928;-60
2021/04/16 08:48:13;;;;;;;6.63;6.13;;;;;;;8.38;60.29;97005.50;5052298;28;20404;-60
2021/04/16 08:50:45;;;;;;;5.43;4.93;;;;;;;8.69;58.21;97009.25;5052975;28;20429;-58
2021/04/16 08:53:10;;;;;;;5.53;5.00;;;;;;;8.64;58.97;96998.53;5052588;28;20496;-60
2021/04/16 08:55:42;;;;;;;5.90;5.40;;;;;;;8.58;59.34;97004.56;5055213;28;20404;-60
2021/04/16 08:58:26;;;;;;;5.40;5.00;;;;;;;8.52;58.01;97001.91;5055371;28;20176;-58
2021/04/16 09:00:56;;;;;;;6.53;5.93;;;;;;;8.44;58.37;97002.09;5053503;28;20842;-58
2021/04/16 09:03:38;;;;;;;5.87;5.27;;;;;;;8.25;60.39;96998.38;5056133;28;20421;-58
2021/04/16 09:06:05;;;;;;;5.70;5.27;;;;;;;8.10;59.49;97008.16;5055651;28;20426;-60
2021/04/16 09:08:39;;;;;;;6.03;5.53;;;;;;;8.43;57.59;96997.84;5054701;28;20532;-58
2021/04/16 09:11:07;;;;;;;6.10;5.67;;;;;;;8.41;59.49;97008.53;5017506;28;20469;-58
2021/04/16 09:13:32;;;;;;;6.30;5.80;;;;;;;8.70;56.62;96999.53;5036044;28;20417;-59
2021/04/16 09:16:16;;;;;;;6.03;5.53;;;;;;;8.79;57.98;97003.59;5055429;28;20420;-65
2021/04/16 09:18:44;;;;;;;5.77;5.30;;;;;;;8.75;59.34;97002.41;5051986;28;20279;-61
2021/04/16 09:21:20;;;;;;;6.07;4.47;;;;;;;9.26;55.89;96990.34;5030862;28;20464;-61
2021/04/16 09:23:46;;;;;;;5.27;4.87;;;;;;;8.80;56.96;96994.75;5032427;28;20399;-59
2021/04/16 09:26:44;;;;;;;5.13;4.77;;;;;;;8.97;56.02;96995.97;5050944;28;20428;-60
2021/04/16 09:29:28;;;;;;;5.00;4.60;;;;;;;8.94;57.13;96996.38;5051079;28;20528;-59
2021/04/16 09:31:59;;;;;;;5.30;4.90;;;;;;;9.24;54.83;96998.41;5052112;28;20545;-59
2021/04/16 09:34:48;;;;;;;6.13;5.53;;;;;;;8.84;57.73;96998.59;5052308;28;20822;-58
2021/04/16 09:37:34;;;;;;;4.70;4.40;;;;;;;9.26;55.70;96987.72;5038546;28;20475;-58
2021/04/16 09:40:23;;;;;;;5.10;4.60;;;;;;;9.11;54.29;96992.38;5050779;28;20440;-61
2021/04/16 09:43:09;;;;;;;4.33;4.03;;;;;;;9.17;53.94;96995.00;5051972;28;20519;-60
2021/04/16 09:45:35;;;;;;;4.57;4.27;;;;;;;9.45;53.54;96992.19;5051639;28;20394;-61
2021/04/16 09:48:08;;;;;;;5.10;4.43;;;;;;;9.45;53.27;96989.56;5036914;28;20916;-56
2021/04/16 09:50:43;;;;;;;5.00;4.60;;;;;;;9.74;52.61;96993.56;5054965;28;20169;-58
2021/04/16 09:53:21;;;;;;;5.30;4.90;;;;;;;9.61;53.22;96980.44;5053075;28;20422;-59
2021/04/16 09:56:10;;;;;;;4.63;4.23;;;;;;;9.31;55.25;96993.97;5055452;28;20473;-57
2021/04/16 09:58:39;;;;;;;4.70;4.17;;;;;;;9.73;53.54;96995.38;5043473;28;20946;-57
2021/04/16 10:01:11;;;;;;;4.20;3.90;;;;;;;9.72;52.54;96991.13;5054476;28;20460;-59
2021/04/16 10:03:50;;;;;;;4.63;4.33;;;;;;;9.73;51.77;96990.13;5050422;28;20420;-57
2021/04/16 10:06:35;;;;;;;3.60;3.30;;;;;;;9.89;52.80;96984.44;5053759;28;20408;-57
2021/04/16 10:09:23;;;;;;;4.70;4.30;;;;;;;9.87;52.15;96981.22;5053744;28;20441;-59
2021/04/16 10:11:51;;;;;;;4.40;4.03;;;;;;;9.92;49.40;96975.34;5036470;28;20471;-58
2021/04/16 10:14:26;;;;;;;4.97;4.57;;;;;;;9.52;51.24;96977.25;5053591;28;20422;-59
2021/04/16 10:16:58;;;;;;;7.10;5.87;;;;;;;10.12;50.72;96976.94;5053959;28;20418;-58
2021/04/16 10:19:27;;;;;;;4.40;4.10;;;;;;;10.24;52.35;96975.28;5054361;28;20535;-57
2021/04/16 10:21:53;;;;;;;6.03;4.77;;;;;;;10.30;50.74;96973.63;5053887;28;20526;-58
2021/04/16 12:40:26;;;;;;;5.10;4.70;;;;;;;8.77;52.16;96969.75;5055510;28;20948;-57
2021/04/16 12:42:54;;;;;;;4.70;4.27;;;;;;;8.90;52.78;96969.75;5056451;28;20213;-59
2021/04/16 12:45:20;;;;;;;5.07;4.57;;;;;;;9.04;52.39;96960.13;5034708;28;20423;-60
2021/04/16 12:47:46;;;;;;;4.90;4.60;;;;;;;9.10;52.97;96954.88;5036073;28;20414;-61
2021/04/16 12:50:17;;;;;;;4.30;4.00;;;;;;;9.19;52.49;96953.66;5036642;28;20423;-60
2021/04/16 12:52:42;;;;;;;4.53;4.23;;;;;;;9.21;52.97;96950.81;5035272;28;20473;-58
2021/04/16 12:55:08;;;;;;;5.07;4.67;;;;;;;9.22;52.04;96958.47;5041435;28;20424;-59
2021/04/16 12:57:38;;;;;;;5.43;5.03;;;;;;;9.42;52.14;96955.84;5056131;28;20249;-58
2021/04/16 13:00:06;;;;;;;5.00;4.60;;;;;;;9.46;50.50;96956.28;5056003;28;20439;-59
2021/04/16 13:02:32;;;;;;;5.17;4.67;;;;;;;9.34;52.20;96951.63;5055413;28;20829;-59
2021/04/16 13:05:00;;;;;;;4.50;4.20;;;;;;;8.77;53.53;96958.47;5056059;28;20414;-57
2021/04/16 13:07:26;;;;;;;5.53;4.30;;;;;;;8.59;54.51;96960.84;5055202;28;20220;-57
2021/04/16 13:09:53;;;;;;;4.27;3.87;;;;;;;8.61;55.11;96958.81;5037701;28;20464;-58
2021/04/16 13:12:19;;;;;;;4.03;3.83;;;;;;;8.57;53.74;96942.69;5055957;28;20406;-57
2021/04/16 13:14:45;;;;;;;5.47;4.27;;;;;;;8.86;53.04;96952.03;5055405;28;20493;-57
2021/04/16 13:17:14;;;;;;;4.43;4.03;;;;;;;8.91;53.72;96944.38;5050088;28;21114;-57
2021/04/16 13:19:42;;;;;;;4.97;4.43;;;;;;;8.77;54.89;96948.78;5051328;28;20833;-56
2021/04/16 13:22:11;;;;;;;5.63;4.30;;;;;;;8.92;54.18;96938.13;5034175;28;20537;-61
2021/04/16 13:24:38;;;;;;;4.87;4.53;;;;;;;8.99;53.39;96938.91;5034123;28;20457;-61
2021/04/16 13:27:09;;;;;;;4.40;4.03;;;;;;;9.14;53.65;96939.53;5051892;28;20417;-59
2021/04/16 13:29:35;;;;;;;4.90;4.57;;;;;;;9.29;53.16;96932.28;5051043;28;20441;-60
2021/04/16 13:32:01;;;;;;;5.03;4.47;;;;;;;9.07;54.05;96936.13;5052013;28;20426;-62
2021/04/16 13:34:27;;;;;;;4.50;4.20;;;;;;;9.49;53.08;96933.06;5051439;28;20530;-60
2021/04/16 13:36:53;;;;;;;5.03;4.63;;;;;;;9.67;51.10;96927.16;5051242;28;20508;-61
2021/04/16 13:39:19;;;;;;;4.63;4.33;;;;;;;9.46;52.36;96924.81;5050889;28;20207;-60
2021/04/16 13:41:44;;;;;;;4.53;4.23;;;;;;;9.47;52.28;96929.03;5032281;28;20475;-63
2021/04/16 13:44:10;;;;;;;4.63;4.23;;;;;;;9.54;53.08;96917.50;5051245;28;20639;-58
2021/04/16 13:46:38;;;;;;;6.23;5.67;;;;;;;9.32;53.60;96914.31;5051716;28;20463;-56
2021/04/16 13:49:09;;;;;;;5.30;4.90;;;;;;;9.24;53.76;96916.31;5051255;28;20203;-57
2021/04/16 13:51:35;;;;;;;5.27;4.87;;;;;;;9.24;54.16;96913.72;5051368;28;21207;-58
2021/04/16 13:54:04;;;;;;;5.27;4.90;;;;;;;9.29;53.16;96911.31;5051288;28;20481;-58
2021/04/16 13:56:30;;;;;;;5.63;4.40;;;;;;;8.79;54.94;96907.47;5051029;28;20427;-58
2021/04/16 13:58:55;;;;;;;5.20;4.77;;;;;;;9.07;53.61;96905.47;5051015;28;20513;-57
2021/04/16 14:01:22;;;;;;;4.73;4.40;;;;;;;8.92;53.52;96909.28;5033223;28;20466;-58
2021/04/16 14:03:50;;;;;;;4.40;4.10;;;;;;;9.15;52.63;96905.25;5050841;28;20176;-58
2021/04/16 14:06:22;;;;;;;4.87;4.47;;;;;;;9.06;53.13;96898.59;5051072;28;20930;-58